sensor_id;sensor_type;location;lat;lon;timestamp;pressure;altitude;pressure_sealevel;temperature;humidity
27729;BME280;15126;42.186;24.340;2023-03-22T00:00:36;98926.47;;;13.24;89.37
27729;BME280;15126;42.186;24.340;2023-03-22T00:03:03;98920.25;;;13.29;89.52
27729;BME280;15126;42.186;24.340;2023-03-22T00:05:32;98921.03;;;13.30;89.77
27729;BME280;15126;42.186;24.340;2023-03-22T00:07:58;98920.25;;;13.29;89.66
27729;BME280;15126;42.186;24.340;2023-03-22T00:10:26;98922.31;;;13.29;89.76
27729;BME280;15126;42.186;24.340;2023-03-22T00:12:54;98925.41;;;13.31;89.82
27729;BME280;15126;42.186;24.340;2023-03-22T00:15:20;98912.31;;;13.28;89.47
27729;BME280;15126;42.186;24.340;2023-03-22T00:17:48;98914.22;;;13.31;89.80
27729;BME280;15126;42.186;24.340;2023-03-22T00:20:16;98904.84;;;13.25;90.07
27729;BME280;15126;42.186;24.340;2023-03-22T00:22:46;98924.31;;;13.28;89.79
27729;BME280;15126;42.186;24.340;2023-03-22T00:25:12;98918.41;;;13.26;89.55
27729;BME280;15126;42.186;24.340;2023-03-22T00:27:39;98918.06;;;13.24;89.89
27729;BME280;15126;42.186;24.340;2023-03-22T00:30:08;98922.56;;;13.22;88.26
27729;BME280;15126;42.186;24.340;2023-03-22T00:32:35;98909.03;;;13.20;88.60
27729;BME280;15126;42.186;24.340;2023-03-22T00:35:04;98911.81;;;13.20;88.91
27729;BME280;15126;42.186;24.340;2023-03-22T00:37:31;98909.03;;;13.20;89.99
27729;BME280;15126;42.186;24.340;2023-03-22T00:40:00;98905.25;;;13.14;89.94
27729;BME280;15126;42.186;24.340;2023-03-22T00:42:29;98907.94;;;13.18;89.57
27729;BME280;15126;42.186;24.340;2023-03-22T00:44:56;98881.34;;;13.00;89.54
27729;BME280;15126;42.186;24.340;2023-03-22T00:47:23;98881.34;;;13.00;89.43
27729;BME280;15126;42.186;24.340;2023-03-22T00:49:49;98900.44;;;13.15;88.75
27729;BME280;15126;42.186;24.340;2023-03-22T00:52:16;98907.44;;;13.19;88.87
27729;BME280;15126;42.186;24.340;2023-03-22T00:54:43;98900.69;;;13.07;90.30
27729;BME280;15126;42.186;24.340;2023-03-22T00:57:11;98903.50;;;13.07;90.23
27729;BME280;15126;42.186;24.340;2023-03-22T00:59:38;98901.03;;;13.09;90.24
27729;BME280;15126;42.186;24.340;2023-03-22T01:02:07;98901.03;;;13.09;90.00
27729;BME280;15126;42.186;24.340;2023-03-22T01:04:34;98900.25;;;13.09;89.79
27729;BME280;15126;42.186;24.340;2023-03-22T01:07:01;98905.38;;;13.10;89.78
27729;BME280;15126;42.186;24.340;2023-03-22T01:09:32;98901.03;;;13.09;89.47
27729;BME280;15126;42.186;24.340;2023-03-22T01:12:00;98893.06;;;13.08;89.65
27729;BME280;15126;42.186;24.340;2023-03-22T01:14:28;98893.88;;;13.08;89.55
27729;BME280;15126;42.186;24.340;2023-03-22T01:16:56;98886.69;;;13.07;88.90
27729;BME280;15126;42.186;24.340;2023-03-22T01:19:23;98896.97;;;13.10;88.83
27729;BME280;15126;42.186;24.340;2023-03-22T01:21:51;98896.06;;;13.13;88.58
27729;BME280;15126;42.186;24.340;2023-03-22T01:24:18;98902.44;;;13.14;88.81
27729;BME280;15126;42.186;24.340;2023-03-22T01:26:45;98898.94;;;13.01;89.48
27729;BME280;15126;42.186;24.340;2023-03-22T01:29:12;98894.88;;;13.02;89.22
27729;BME280;15126;42.186;24.340;2023-03-22T01:31:40;98896.44;;;13.03;89.16
27729;BME280;15126;42.186;24.340;2023-03-22T01:34:07;98894.38;;;12.94;90.28
27729;BME280;15126;42.186;24.340;2023-03-22T01:36:35;98901.41;;;12.99;89.82
27729;BME280;15126;42.186;24.340;2023-03-22T01:39:02;98882.06;;;12.92;89.77
27729;BME280;15126;42.186;24.340;2023-03-22T01:41:29;98897.03;;;12.98;89.66
27729;BME280;15126;42.186;24.340;2023-03-22T01:44:07;98900.16;;;13.00;89.65
27729;BME280;15126;42.186;24.340;2023-03-22T01:46:34;98894.69;;;12.96;89.73
27729;BME280;15126;42.186;24.340;2023-03-22T01:49:04;98902.16;;;12.99;89.80
27729;BME280;15126;42.186;24.340;2023-03-22T01:51:32;98886.28;;;12.96;90.56
27729;BME280;15126;42.186;24.340;2023-03-22T01:54:01;98891.88;;;12.96;91.02
27729;BME280;15126;42.186;24.340;2023-03-22T01:56:30;98896.06;;;12.92;91.08
27729;BME280;15126;42.186;24.340;2023-03-22T01:58:58;98900.28;;;12.96;90.86
27729;BME280;15126;42.186;24.340;2023-03-22T02:01:26;98898.72;;;12.95;91.06
27729;BME280;15126;42.186;24.340;2023-03-22T02:03:55;98893.03;;;12.77;92.73
27729;BME280;15126;42.186;24.340;2023-03-22T02:06:25;98892.69;;;12.75;92.65
27729;BME280;15126;42.186;24.340;2023-03-22T02:08:54;98893.00;;;12.55;93.95
27729;BME280;15126;42.186;24.340;2023-03-22T02:11:27;98899.06;;;12.54;94.16
27729;BME280;15126;42.186;24.340;2023-03-22T02:14:19;98887.78;;;12.45;93.65
27729;BME280;15126;42.186;24.340;2023-03-22T02:17:01;98898.41;;;12.50;93.50
27729;BME280;15126;42.186;24.340;2023-03-22T02:23:10;98913.72;;;12.45;94.33
27729;BME280;15126;42.186;24.340;2023-03-22T02:26:07;98915.38;;;12.55;94.01
27729;BME280;15126;42.186;24.340;2023-03-22T02:28:43;98912.13;;;12.57;93.94
27729;BME280;15126;42.186;24.340;2023-03-22T02:31:40;98914.34;;;12.62;93.56
27729;BME280;15126;42.186;24.340;2023-03-22T02:40:43;98931.31;;;12.46;93.76
27729;BME280;15126;42.186;24.340;2023-03-22T02:43:17;98924.81;;;12.49;93.58
27729;BME280;15126;42.186;24.340;2023-03-22T02:45:52;98934.78;;;12.50;92.92
27729;BME280;15126;42.186;24.340;2023-03-22T02:48:25;98942.69;;;12.51;92.28
27729;BME280;15126;42.186;24.340;2023-03-22T02:50:55;98933.19;;;12.49;91.95
27729;BME280;15126;42.186;24.340;2023-03-22T02:53:29;98940.00;;;12.48;91.74
27729;BME280;15126;42.186;24.340;2023-03-22T02:56:03;98942.38;;;12.49;91.50
27729;BME280;15126;42.186;24.340;2023-03-22T02:58:35;98951.19;;;12.48;91.56
27729;BME280;15126;42.186;24.340;2023-03-22T03:01:06;98940.28;;;12.41;89.62
27729;BME280;15126;42.186;24.340;2023-03-22T03:03:36;98949.13;;;12.27;87.11
27729;BME280;15126;42.186;24.340;2023-03-22T03:06:07;98942.66;;;12.30;86.81
27729;BME280;15126;42.186;24.340;2023-03-22T03:08:36;98937.44;;;12.07;87.75
27729;BME280;15126;42.186;24.340;2023-03-22T03:11:06;98922.06;;;11.89;88.09
27729;BME280;15126;42.186;24.340;2023-03-22T03:13:33;98957.13;;;12.03;87.83
27729;BME280;15126;42.186;24.340;2023-03-22T03:16:00;98950.28;;;12.04;87.67
27729;BME280;15126;42.186;24.340;2023-03-22T03:18:37;98951.44;;;11.94;87.47
27729;BME280;15126;42.186;24.340;2023-03-22T03:21:16;98961.94;;;11.90;87.88
27729;BME280;15126;42.186;24.340;2023-03-22T03:23:50;98956.38;;;11.90;88.67
27729;BME280;15126;42.186;24.340;2023-03-22T03:26:25;98942.28;;;11.68;88.74
27729;BME280;15126;42.186;24.340;2023-03-22T03:28:57;98953.00;;;11.82;88.80
27729;BME280;15126;42.186;24.340;2023-03-22T03:31:30;98954.81;;;11.76;88.93
27729;BME280;15126;42.186;24.340;2023-03-22T03:34:11;98954.34;;;11.78;88.69
27729;BME280;15126;42.186;24.340;2023-03-22T03:36:43;98961.06;;;11.80;89.17
27729;BME280;15126;42.186;24.340;2023-03-22T03:39:13;98958.81;;;11.75;89.39
27729;BME280;15126;42.186;24.340;2023-03-22T03:41:44;98965.53;;;11.78;89.28
27729;BME280;15126;42.186;24.340;2023-03-22T03:44:14;98972.00;;;11.75;90.37
27729;BME280;15126;42.186;24.340;2023-03-22T03:46:43;98964.31;;;11.79;90.23
27729;BME280;15126;42.186;24.340;2023-03-22T03:49:11;98969.66;;;11.73;90.35
27729;BME280;15126;42.186;24.340;2023-03-22T03:51:47;98942.69;;;11.54;89.76
27729;BME280;15126;42.186;24.340;2023-03-22T03:54:15;98974.00;;;11.74;90.43
27729;BME280;15126;42.186;24.340;2023-03-22T03:56:43;98970.63;;;11.67;90.29
27729;BME280;15126;42.186;24.340;2023-03-22T03:59:12;98977.22;;;11.60;89.94
27729;BME280;15126;42.186;24.340;2023-03-22T04:01:40;98974.22;;;11.67;89.60
27729;BME280;15126;42.186;24.340;2023-03-22T04:04:15;98970.84;;;11.60;89.09
27729;BME280;15126;42.186;24.340;2023-03-22T04:06:42;98965.38;;;11.56;89.65
27729;BME280;15126;42.186;24.340;2023-03-22T04:09:09;98974.78;;;11.62;89.74
27729;BME280;15126;42.186;24.340;2023-03-22T04:11:36;98975.75;;;11.43;90.01
27729;BME280;15126;42.186;24.340;2023-03-22T04:14:04;98976.78;;;11.49;90.47
27729;BME280;15126;42.186;24.340;2023-03-22T04:16:31;98981.91;;;11.38;89.87
27729;BME280;15126;42.186;24.340;2023-03-22T04:18:58;98977.84;;;11.39;89.83
27729;BME280;15126;42.186;24.340;2023-03-22T04:21:25;98981.00;;;11.41;89.95
27729;BME280;15126;42.186;24.340;2023-03-22T04:23:51;98983.34;;;11.43;89.78
27729;BME280;15126;42.186;24.340;2023-03-22T04:26:20;98979.19;;;11.47;90.31
27729;BME280;15126;42.186;24.340;2023-03-22T04:28:46;98978.44;;;11.47;90.63
27729;BME280;15126;42.186;24.340;2023-03-22T04:31:15;98985.25;;;11.46;89.97
27729;BME280;15126;42.186;24.340;2023-03-22T04:33:42;98972.50;;;11.32;89.87
27729;BME280;15126;42.186;24.340;2023-03-22T04:36:11;98984.69;;;11.38;89.70
27729;BME280;15126;42.186;24.340;2023-03-22T04:38:40;98977.06;;;11.26;90.10
27729;BME280;15126;42.186;24.340;2023-03-22T04:41:07;98994.59;;;11.39;89.92
27729;BME280;15126;42.186;24.340;2023-03-22T04:43:35;98985.09;;;11.24;90.09
27729;BME280;15126;42.186;24.340;2023-03-22T04:46:04;98999.84;;;11.37;90.01
27729;BME280;15126;42.186;24.340;2023-03-22T04:48:36;99004.09;;;11.42;90.89
27729;BME280;15126;42.186;24.340;2023-03-22T04:51:04;99005.69;;;11.43;91.94
27729;BME280;15126;42.186;24.340;2023-03-22T04:53:31;99003.78;;;11.40;91.69
27729;BME280;15126;42.186;24.340;2023-03-22T04:56:04;99017.16;;;11.32;91.49
27729;BME280;15126;42.186;24.340;2023-03-22T04:58:32;99010.13;;;11.27;91.19
27729;BME280;15126;42.186;24.340;2023-03-22T05:00:59;99003.69;;;11.14;91.65
27729;BME280;15126;42.186;24.340;2023-03-22T05:03:25;99012.06;;;11.14;91.13
27729;BME280;15126;42.186;24.340;2023-03-22T05:05:55;99025.59;;;11.16;91.62
27729;BME280;15126;42.186;24.340;2023-03-22T05:08:23;99030.53;;;11.24;91.51
27729;BME280;15126;42.186;24.340;2023-03-22T05:10:50;99034.47;;;11.27;91.53
27729;BME280;15126;42.186;24.340;2023-03-22T05:13:17;99040.84;;;11.27;91.93
27729;BME280;15126;42.186;24.340;2023-03-22T05:15:44;99045.41;;;11.34;91.79
27729;BME280;15126;42.186;24.340;2023-03-22T05:18:13;99046.44;;;11.40;92.37
27729;BME280;15126;42.186;24.340;2023-03-22T05:20:40;99054.47;;;11.38;92.60
27729;BME280;15126;42.186;24.340;2023-03-22T05:23:09;99054.47;;;11.38;92.52
27729;BME280;15126;42.186;24.340;2023-03-22T05:25:43;99052.81;;;11.41;91.93
27729;BME280;15126;42.186;24.340;2023-03-22T05:28:11;99059.19;;;11.41;91.90
27729;BME280;15126;42.186;24.340;2023-03-22T05:30:39;99056.41;;;11.41;90.73
27729;BME280;15126;42.186;24.340;2023-03-22T05:33:06;99057.38;;;11.47;90.84
27729;BME280;15126;42.186;24.340;2023-03-22T05:35:35;99052.69;;;11.44;90.89
27729;BME280;15126;42.186;24.340;2023-03-22T05:38:03;99061.63;;;11.39;90.54
27729;BME280;15126;42.186;24.340;2023-03-22T05:40:32;99049.56;;;11.42;90.48
27729;BME280;15126;42.186;24.340;2023-03-22T05:42:59;99056.19;;;11.48;91.59
27729;BME280;15126;42.186;24.340;2023-03-22T05:45:26;99064.47;;;11.52;91.64
27729;BME280;15126;42.186;24.340;2023-03-22T05:47:52;99063.13;;;11.56;92.00
27729;BME280;15126;42.186;24.340;2023-03-22T05:50:21;99074.06;;;11.63;92.47
27729;BME280;15126;42.186;24.340;2023-03-22T05:52:48;99066.47;;;11.64;92.65
27729;BME280;15126;42.186;24.340;2023-03-22T05:55:16;99073.63;;;11.52;93.76
27729;BME280;15126;42.186;24.340;2023-03-22T05:57:45;99066.25;;;11.58;91.81
27729;BME280;15126;42.186;24.340;2023-03-22T06:00:16;99075.75;;;11.61;92.51
27729;BME280;15126;42.186;24.340;2023-03-22T06:02:46;99067.28;;;11.64;92.59
27729;BME280;15126;42.186;24.340;2023-03-22T06:05:14;99073.91;;;11.70;92.60
27729;BME280;15126;42.186;24.340;2023-03-22T06:07:41;99075.47;;;11.71;92.07
27729;BME280;15126;42.186;24.340;2023-03-22T06:10:12;99078.25;;;11.71;92.83
27729;BME280;15126;42.186;24.340;2023-03-22T06:12:39;99075.47;;;11.71;92.57
27729;BME280;15126;42.186;24.340;2023-03-22T06:15:08;99076.16;;;11.75;92.45
27729;BME280;15126;42.186;24.340;2023-03-22T06:17:35;99085.66;;;11.78;92.76
27729;BME280;15126;42.186;24.340;2023-03-22T06:20:05;99066.38;;;11.67;92.55
27729;BME280;15126;42.186;24.340;2023-03-22T06:22:35;99089.13;;;11.82;91.82
27729;BME280;15126;42.186;24.340;2023-03-22T06:25:03;99091.81;;;11.85;91.32
27729;BME280;15126;42.186;24.340;2023-03-22T06:27:31;99092.94;;;11.88;91.35
27729;BME280;15126;42.186;24.340;2023-03-22T06:29:58;99095.28;;;11.89;91.28
27729;BME280;15126;42.186;24.340;2023-03-22T06:32:26;99102.78;;;11.92;91.34
27729;BME280;15126;42.186;24.340;2023-03-22T06:34:54;99106.34;;;11.93;91.59
27729;BME280;15126;42.186;24.340;2023-03-22T06:37:21;99102.78;;;11.92;91.72
27729;BME280;15126;42.186;24.340;2023-03-22T06:39:48;99117.09;;;11.94;90.50
27729;BME280;15126;42.186;24.340;2023-03-22T06:42:16;99113.09;;;11.96;90.36
27729;BME280;15126;42.186;24.340;2023-03-22T06:44:43;99125.47;;;11.94;90.82
27729;BME280;15126;42.186;24.340;2023-03-22T06:47:10;99115.75;;;11.86;91.40
27729;BME280;15126;42.186;24.340;2023-03-22T06:49:38;99113.97;;;11.92;91.42
27729;BME280;15126;42.186;24.340;2023-03-22T06:52:05;99119.19;;;11.90;91.76
27729;BME280;15126;42.186;24.340;2023-03-22T06:54:32;99123.09;;;11.93;91.82
27729;BME280;15126;42.186;24.340;2023-03-22T06:56:59;99079.50;;;11.70;91.79
27729;BME280;15126;42.186;24.340;2023-03-22T06:59:26;99119.44;;;11.96;92.33
27729;BME280;15126;42.186;24.340;2023-03-22T07:01:53;99125.38;;;11.98;92.38
27729;BME280;15126;42.186;24.340;2023-03-22T07:04:20;99126.50;;;12.01;92.16
27729;BME280;15126;42.186;24.340;2023-03-22T07:06:49;99133.31;;;12.00;92.22
27729;BME280;15126;42.186;24.340;2023-03-22T07:09:16;99130.59;;;11.96;92.96
27729;BME280;15126;42.186;24.340;2023-03-22T07:11:43;99132.19;;;11.97;92.70
27729;BME280;15126;42.186;24.340;2023-03-22T07:14:10;99140.47;;;12.01;93.06
27729;BME280;15126;42.186;24.340;2023-03-22T07:16:37;99143.59;;;12.03;93.14
27729;BME280;15126;42.186;24.340;2023-03-22T07:19:03;99139.59;;;12.04;93.44
27729;BME280;15126;42.186;24.340;2023-03-22T07:21:31;99152.78;;;12.03;93.45
27729;BME280;15126;42.186;24.340;2023-03-22T07:23:59;99148.16;;;11.97;93.62
27729;BME280;15126;42.186;24.340;2023-03-22T07:26:26;99135.72;;;11.85;93.71
27729;BME280;15126;42.186;24.340;2023-03-22T07:28:55;99156.13;;;11.98;92.46
27729;BME280;15126;42.186;24.340;2023-03-22T07:31:22;99158.13;;;11.98;92.87
27729;BME280;15126;42.186;24.340;2023-03-22T07:33:49;99153.66;;;11.87;93.34
27729;BME280;15126;42.186;24.340;2023-03-22T07:36:16;99159.56;;;11.89;93.53
27729;BME280;15126;42.186;24.340;2023-03-22T07:38:48;99162.03;;;11.87;93.51
27729;BME280;15126;42.186;24.340;2023-03-22T07:41:17;99158.31;;;11.90;93.48
27729;BME280;15126;42.186;24.340;2023-03-22T07:43:43;99163.16;;;11.90;93.95
27729;BME280;15126;42.186;24.340;2023-03-22T07:46:10;99166.28;;;11.92;93.94
27729;BME280;15126;42.186;24.340;2023-03-22T07:48:37;99170.44;;;12.00;94.56
27729;BME280;15126;42.186;24.340;2023-03-22T07:51:05;99168.28;;;12.04;94.46
27729;BME280;15126;42.186;24.340;2023-03-22T07:53:32;99172.91;;;12.11;94.40
27729;BME280;15126;42.186;24.340;2023-03-22T07:55:59;99173.94;;;12.17;94.48
27729;BME280;15126;42.186;24.340;2023-03-22T07:58:27;99166.22;;;12.21;95.18
27729;BME280;15126;42.186;24.340;2023-03-22T08:00:54;99171.47;;;12.31;95.11
27729;BME280;15126;42.186;24.340;2023-03-22T08:03:20;99166.47;;;12.39;94.86
27729;BME280;15126;42.186;24.340;2023-03-22T08:05:47;99140.84;;;12.28;94.86
27729;BME280;15126;42.186;24.340;2023-03-22T08:08:15;99173.50;;;12.56;93.79
27729;BME280;15126;42.186;24.340;2023-03-22T08:10:47;99170.28;;;12.58;95.09
27729;BME280;15126;42.186;24.340;2023-03-22T08:13:14;99172.72;;;12.68;94.83
27729;BME280;15126;42.186;24.340;2023-03-22T08:15:42;99150.34;;;12.55;95.64
27729;BME280;15126;42.186;24.340;2023-03-22T08:18:09;99169.16;;;12.68;94.76
27729;BME280;15126;42.186;24.340;2023-03-22T08:20:36;99160.53;;;12.62;94.05
27729;BME280;15126;42.186;24.340;2023-03-22T08:23:03;99120.47;;;12.40;95.14
27729;BME280;15126;42.186;24.340;2023-03-22T08:25:32;99154.81;;;12.53;96.87
27729;BME280;15126;42.186;24.340;2023-03-22T08:27:59;99159.09;;;12.58;97.16
27729;BME280;15126;42.186;24.340;2023-03-22T08:30:26;99158.41;;;12.66;97.08
27729;BME280;15126;42.186;24.340;2023-03-22T08:32:54;99158.97;;;12.74;96.61
27729;BME280;15126;42.186;24.340;2023-03-22T08:35:21;99125.16;;;12.55;98.16
27729;BME280;15126;42.186;24.340;2023-03-22T08:37:52;99158.97;;;12.74;97.22
27729;BME280;15126;42.186;24.340;2023-03-22T08:40:19;99165.69;;;12.76;97.09
27729;BME280;15126;42.186;24.340;2023-03-22T08:42:47;99150.09;;;12.75;96.81
27729;BME280;15126;42.186;24.340;2023-03-22T08:45:14;99171.72;;;12.87;96.08
27729;BME280;15126;42.186;24.340;2023-03-22T08:47:41;99173.03;;;12.95;96.52
27729;BME280;15126;42.186;24.340;2023-03-22T08:50:11;99163.97;;;12.91;95.54
27729;BME280;15126;42.186;24.340;2023-03-22T08:52:38;99159.56;;;13.16;94.85
27729;BME280;15126;42.186;24.340;2023-03-22T08:55:06;99171.19;;;13.27;95.68
27729;BME280;15126;42.186;24.340;2023-03-22T08:57:34;99171.88;;;13.31;97.29
27729;BME280;15126;42.186;24.340;2023-03-22T09:00:01;99169.88;;;13.31;95.86
27729;BME280;15126;42.186;24.340;2023-03-22T09:02:31;99171.09;;;13.30;96.69
27729;BME280;15126;42.186;24.340;2023-03-22T09:04:58;99177.94;;;13.63;95.59
27729;BME280;15126;42.186;24.340;2023-03-22T09:07:26;99183.22;;;13.83;95.34
27729;BME280;15126;42.186;24.340;2023-03-22T09:09:53;99177.41;;;13.99;93.93
27729;BME280;15126;42.186;24.340;2023-03-22T09:12:20;99176.56;;;14.11;92.46
27729;BME280;15126;42.186;24.340;2023-03-22T09:14:46;99169.41;;;14.10;91.17
27729;BME280;15126;42.186;24.340;2023-03-22T09:17:14;99170.50;;;13.91;92.49
27729;BME280;15126;42.186;24.340;2023-03-22T09:19:43;99165.63;;;14.04;92.44
27729;BME280;15126;42.186;24.340;2023-03-22T09:22:10;99173.16;;;13.95;91.86
27729;BME280;15126;42.186;24.340;2023-03-22T09:24:38;99180.97;;;14.00;91.50
27729;BME280;15126;42.186;24.340;2023-03-22T09:27:05;99181.56;;;13.95;91.60
27729;BME280;15126;42.186;24.340;2023-03-22T09:29:32;99177.53;;;13.96;92.39
27729;BME280;15126;42.186;24.340;2023-03-22T09:31:59;99188.03;;;14.04;91.91
27729;BME280;15126;42.186;24.340;2023-03-22T09:34:25;99185.47;;;14.19;91.42
27729;BME280;15126;42.186;24.340;2023-03-22T09:36:52;99188.97;;;14.01;92.62
27729;BME280;15126;42.186;24.340;2023-03-22T09:39:19;99188.38;;;14.06;91.94
27729;BME280;15126;42.186;24.340;2023-03-22T09:41:50;99172.09;;;14.23;90.75
27729;BME280;15126;42.186;24.340;2023-03-22T09:44:25;99183.03;;;14.30;89.79
27729;BME280;15126;42.186;24.340;2023-03-22T09:46:54;99185.94;;;14.39;88.38
27729;BME280;15126;42.186;24.340;2023-03-22T09:49:28;99183.94;;;14.40;87.76
27729;BME280;15126;42.186;24.340;2023-03-22T09:51:55;99189.56;;;14.49;86.36
27729;BME280;15126;42.186;24.340;2023-03-22T09:54:29;99187.25;;;14.25;87.71
27729;BME280;15126;42.186;24.340;2023-03-22T09:57:02;99183.75;;;14.34;88.20
27729;BME280;15126;42.186;24.340;2023-03-22T09:59:37;99180.72;;;14.28;86.14
27729;BME280;15126;42.186;24.340;2023-03-22T10:02:21;99190.63;;;14.42;85.68
27729;BME280;15126;42.186;24.340;2023-03-22T10:04:58;99187.84;;;14.51;85.17
27729;BME280;15126;42.186;24.340;2023-03-22T10:07:33;99186.19;;;14.54;84.75
27729;BME280;15126;42.186;24.340;2023-03-22T10:10:14;99191.78;;;14.54;86.77
27729;BME280;15126;42.186;24.340;2023-03-22T10:12:48;99192.72;;;14.51;86.21
27729;BME280;15126;42.186;24.340;2023-03-22T10:15:33;99197.03;;;14.43;82.50
27729;BME280;15126;42.186;24.340;2023-03-22T10:18:04;99191.50;;;14.61;85.36
27729;BME280;15126;42.186;24.340;2023-03-22T10:20:37;99184.31;;;14.60;83.93
27729;BME280;15126;42.186;24.340;2023-03-22T10:23:09;99186.38;;;14.68;83.80
27729;BME280;15126;42.186;24.340;2023-03-22T10:25:40;99186.88;;;14.76;83.02
27729;BME280;15126;42.186;24.340;2023-03-22T10:28:17;99192.13;;;14.65;81.90
27729;BME280;15126;42.186;24.340;2023-03-22T10:30:49;99189.09;;;14.81;81.34
27729;BME280;15126;42.186;24.340;2023-03-22T10:33:26;99176.59;;;14.82;82.12
27729;BME280;15126;42.186;24.340;2023-03-22T10:35:56;99183.00;;;14.82;80.79
27729;BME280;15126;42.186;24.340;2023-03-22T10:38:25;99173.97;;;14.87;81.25
27729;BME280;15126;42.186;24.340;2023-03-22T10:40:54;99174.50;;;15.04;81.77
27729;BME280;15126;42.186;24.340;2023-03-22T10:43:27;99180.13;;;15.04;79.31
27729;BME280;15126;42.186;24.340;2023-03-22T10:45:56;99170.78;;;15.16;81.80
27729;BME280;15126;42.186;24.340;2023-03-22T10:48:27;99172.81;;;15.25;79.51
27729;BME280;15126;42.186;24.340;2023-03-22T10:50:57;99176.88;;;15.33;79.43
27729;BME280;15126;42.186;24.340;2023-03-22T10:53:33;99173.66;;;15.43;78.51
27729;BME280;15126;42.186;24.340;2023-03-22T10:56:03;99172.41;;;15.54;77.63
27729;BME280;15126;42.186;24.340;2023-03-22T10:58:33;99143.66;;;15.40;74.04
27729;BME280;15126;42.186;24.340;2023-03-22T11:01:03;99174.13;;;15.60;72.93
27729;BME280;15126;42.186;24.340;2023-03-22T11:03:36;99165.09;;;15.65;75.74
27729;BME280;15126;42.186;24.340;2023-03-22T11:06:07;99166.19;;;15.68;77.45
27729;BME280;15126;42.186;24.340;2023-03-22T11:08:44;99157.75;;;15.59;75.48
27729;BME280;15126;42.186;24.340;2023-03-22T11:11:20;99164.59;;;15.58;74.22
27729;BME280;15126;42.186;24.340;2023-03-22T11:13:55;99149.25;;;15.31;73.62
27729;BME280;15126;42.186;24.340;2023-03-22T11:16:25;99153.38;;;15.48;73.96
27729;BME280;15126;42.186;24.340;2023-03-22T11:18:54;99148.81;;;15.42;76.23
27729;BME280;15126;42.186;24.340;2023-03-22T11:21:24;99154.91;;;15.49;74.26
27729;BME280;15126;42.186;24.340;2023-03-22T11:23:57;99124.13;;;15.37;74.41
27729;BME280;15126;42.186;24.340;2023-03-22T11:26:27;99155.84;;;15.46;73.88
27729;BME280;15126;42.186;24.340;2023-03-22T11:29:04;99144.28;;;15.44;73.95
27729;BME280;15126;42.186;24.340;2023-03-22T11:31:52;99127.72;;;15.37;73.00
27729;BME280;15126;42.186;24.340;2023-03-22T11:34:21;99130.22;;;15.44;74.46
27729;BME280;15126;42.186;24.340;2023-03-22T11:36:48;99113.69;;;15.37;74.73
27729;BME280;15126;42.186;24.340;2023-03-22T11:39:22;99128.69;;;15.43;74.30
27729;BME280;15126;42.186;24.340;2023-03-22T11:41:49;99119.94;;;15.51;72.90
27729;BME280;15126;42.186;24.340;2023-03-22T11:44:19;99127.56;;;15.68;72.25
27729;BME280;15126;42.186;24.340;2023-03-22T11:46:53;99111.34;;;15.63;71.75
27729;BME280;15126;42.186;24.340;2023-03-22T11:49:24;99130.84;;;15.85;71.95
27729;BME280;15126;42.186;24.340;2023-03-22T11:51:53;99120.22;;;15.89;73.43
27729;BME280;15126;42.186;24.340;2023-03-22T11:54:27;99127.38;;;15.99;71.49
27729;BME280;15126;42.186;24.340;2023-03-22T11:56:56;99100.53;;;15.98;72.18
27729;BME280;15126;42.186;24.340;2023-03-22T11:59:35;99115.94;;;16.12;69.27
27729;BME280;15126;42.186;24.340;2023-03-22T12:02:08;99120.91;;;16.26;66.40
27729;BME280;15126;42.186;24.340;2023-03-22T12:04:40;99126.38;;;16.29;67.94
27729;BME280;15126;42.186;24.340;2023-03-22T12:07:13;99125.44;;;16.32;66.45
27729;BME280;15126;42.186;24.340;2023-03-22T12:09:43;99130.44;;;16.28;69.65
27729;BME280;15126;42.186;24.340;2023-03-22T12:12:13;99118.28;;;16.13;68.64
27729;BME280;15126;42.186;24.340;2023-03-22T12:14:47;99098.31;;;16.02;67.52
27729;BME280;15126;42.186;24.340;2023-03-22T12:17:22;99125.81;;;16.07;67.26
27729;BME280;15126;42.186;24.340;2023-03-22T12:20:02;99114.09;;;15.99;64.14
27729;BME280;15126;42.186;24.340;2023-03-22T12:22:34;99119.72;;;15.99;68.29
27729;BME280;15126;42.186;24.340;2023-03-22T12:25:01;99118.00;;;16.02;68.06
27729;BME280;15126;42.186;24.340;2023-03-22T12:27:31;99109.56;;;15.93;66.99
27729;BME280;15126;42.186;24.340;2023-03-22T12:30:03;99103.16;;;16.01;66.99
27729;BME280;15126;42.186;24.340;2023-03-22T12:32:35;99108.81;;;15.92;65.25
27729;BME280;15126;42.186;24.340;2023-03-22T12:35:06;99112.56;;;15.89;68.06
27729;BME280;15126;42.186;24.340;2023-03-22T12:37:38;99119.59;;;15.85;64.47
27729;BME280;15126;42.186;24.340;2023-03-22T12:40:17;99113.22;;;15.84;66.37
27729;BME280;15126;42.186;24.340;2023-03-22T12:42:49;99118.66;;;15.88;68.71
27729;BME280;15126;42.186;24.340;2023-03-22T12:45:23;99108.03;;;15.74;69.39
27729;BME280;15126;42.186;24.340;2023-03-22T12:47:56;99117.56;;;15.76;68.42
27729;BME280;15126;42.186;24.340;2023-03-22T12:50:30;99118.34;;;15.77;68.75
27729;BME280;15126;42.186;24.340;2023-03-22T12:53:00;99119.78;;;15.81;67.58
27729;BME280;15126;42.186;24.340;2023-03-22T12:55:30;99111.50;;;15.69;67.35
27729;BME280;15126;42.186;24.340;2023-03-22T12:57:58;99105.22;;;15.83;68.35
27729;BME280;15126;42.186;24.340;2023-03-22T13:00:28;99116.63;;;15.97;70.60
27729;BME280;15126;42.186;24.340;2023-03-22T13:03:00;99104.28;;;15.86;68.40
27729;BME280;15126;42.186;24.340;2023-03-22T13:05:32;99113.97;;;15.94;68.90
27729;BME280;15126;42.186;24.340;2023-03-22T13:07:59;99114.31;;;15.78;68.27
27729;BME280;15126;42.186;24.340;2023-03-22T13:10:59;99115.88;;;15.79;66.63
27729;BME280;15126;42.186;24.340;2023-03-22T13:13:43;99116.63;;;15.79;67.82